sensor_id;sensor_type;location;lat;lon;timestamp;temperature;humidity
49253;DHT22;35103;47.952;-1.502;2022-11-23T00:01:32;10.50;77.30
49253;DHT22;35103;47.952;-1.502;2022-11-23T00:04:02;10.50;77.00
49253;DHT22;35103;47.952;-1.502;2022-11-23T00:06:28;10.50;76.90
49253;DHT22;35103;47.952;-1.502;2022-11-23T00:08:54;10.50;76.80
49253;DHT22;35103;47.952;-1.502;2022-11-23T00:11:21;10.50;76.90
49253;DHT22;35103;47.952;-1.502;2022-11-23T00:13:47;10.50;77.20
49253;DHT22;35103;47.952;-1.502;2022-11-23T00:16:15;10.60;77.10
49253;DHT22;35103;47.952;-1.502;2022-11-23T00:18:42;10.60;77.10
49253;DHT22;35103;47.952;-1.502;2022-11-23T00:21:09;10.60;77.10
49253;DHT22;35103;47.952;-1.502;2022-11-23T00:23:36;10.60;77.30
49253;DHT22;35103;47.952;-1.502;2022-11-23T00:26:01;10.60;77.80
49253;DHT22;35103;47.952;-1.502;2022-11-23T00:28:27;10.70;77.70
49253;DHT22;35103;47.952;-1.502;2022-11-23T00:30:53;10.60;78.00
49253;DHT22;35103;47.952;-1.502;2022-11-23T00:33:18;10.60;78.30
49253;DHT22;35103;47.952;-1.502;2022-11-23T00:35:44;10.60;78.30
49253;DHT22;35103;47.952;-1.502;2022-11-23T00:38:10;10.70;78.40
49253;DHT22;35103;47.952;-1.502;2022-11-23T00:40:36;10.60;78.60
49253;DHT22;35103;47.952;-1.502;2022-11-23T00:43:01;10.60;78.80
49253;DHT22;35103;47.952;-1.502;2022-11-23T00:45:27;10.60;79.00
49253;DHT22;35103;47.952;-1.502;2022-11-23T00:47:52;10.60;79.40
49253;DHT22;35103;47.952;-1.502;2022-11-23T00:50:18;10.70;79.70
49253;DHT22;35103;47.952;-1.502;2022-11-23T00:52:43;10.70;79.60
49253;DHT22;35103;47.952;-1.502;2022-11-23T00:55:09;10.70;80.00
49253;DHT22;35103;47.952;-1.502;2022-11-23T00:57:35;10.60;80.00
49253;DHT22;35103;47.952;-1.502;2022-11-23T01:00:01;10.80;79.90
49253;DHT22;35103;47.952;-1.502;2022-11-23T01:02:26;10.70;79.80
49253;DHT22;35103;47.952;-1.502;2022-11-23T01:04:52;10.70;80.10
49253;DHT22;35103;47.952;-1.502;2022-11-23T01:07:17;10.70;80.50
49253;DHT22;35103;47.952;-1.502;2022-11-23T01:09:43;10.70;79.50
49253;DHT22;35103;47.952;-1.502;2022-11-23T01:12:08;10.70;80.50
49253;DHT22;35103;47.952;-1.502;2022-11-23T01:14:34;10.70;80.40
49253;DHT22;35103;47.952;-1.502;2022-11-23T01:17:00;10.80;80.00
49253;DHT22;35103;47.952;-1.502;2022-11-23T01:19:25;10.80;80.80
49253;DHT22;35103;47.952;-1.502;2022-11-23T01:21:51;10.80;81.10
49253;DHT22;35103;47.952;-1.502;2022-11-23T01:24:21;10.70;80.70
49253;DHT22;35103;47.952;-1.502;2022-11-23T01:26:50;10.70;80.90
49253;DHT22;35103;47.952;-1.502;2022-11-23T01:29:16;10.70;82.10
49253;DHT22;35103;47.952;-1.502;2022-11-23T01:31:42;10.70;81.30
49253;DHT22;35103;47.952;-1.502;2022-11-23T01:34:10;10.70;81.50
49253;DHT22;35103;47.952;-1.502;2022-11-23T01:36:36;10.70;81.30
49253;DHT22;35103;47.952;-1.502;2022-11-23T01:39:03;10.70;81.80
49253;DHT22;35103;47.952;-1.502;2022-11-23T01:41:31;10.70;81.30
49253;DHT22;35103;47.952;-1.502;2022-11-23T01:43:57;10.70;81.90
49253;DHT22;35103;47.952;-1.502;2022-11-23T01:46:23;10.70;81.80
49253;DHT22;35103;47.952;-1.502;2022-11-23T01:48:56;10.80;81.70
49253;DHT22;35103;47.952;-1.502;2022-11-23T01:51:39;10.80;81.90
49253;DHT22;35103;47.952;-1.502;2022-11-23T01:54:11;10.70;82.30
49253;DHT22;35103;47.952;-1.502;2022-11-23T01:56:41;10.70;82.40
49253;DHT22;35103;47.952;-1.502;2022-11-23T01:59:11;10.80;82.30
49253;DHT22;35103;47.952;-1.502;2022-11-23T02:01:38;10.80;82.60
49253;DHT22;35103;47.952;-1.502;2022-11-23T02:04:07;10.80;82.60
49253;DHT22;35103;47.952;-1.502;2022-11-23T02:06:34;10.80;82.40
49253;DHT22;35103;47.952;-1.502;2022-11-23T02:08:59;10.80;82.90
49253;DHT22;35103;47.952;-1.502;2022-11-23T02:11:26;10.80;83.10
49253;DHT22;35103;47.952;-1.502;2022-11-23T02:13:51;10.70;83.40
49253;DHT22;35103;47.952;-1.502;2022-11-23T02:16:17;10.80;83.70
49253;DHT22;35103;47.952;-1.502;2022-11-23T02:18:45;10.70;83.50
49253;DHT22;35103;47.952;-1.502;2022-11-23T02:21:11;10.80;83.10
49253;DHT22;35103;47.952;-1.502;2022-11-23T02:23:58;10.80;83.60
49253;DHT22;35103;47.952;-1.502;2022-11-23T02:26:28;10.80;83.50
49253;DHT22;35103;47.952;-1.502;2022-11-23T02:29:15;10.80;83.70
49253;DHT22;35103;47.952;-1.502;2022-11-23T02:31:41;10.80;83.40
49253;DHT22;35103;47.952;-1.502;2022-11-23T02:34:07;10.80;83.50
49253;DHT22;35103;47.952;-1.502;2022-11-23T02:36:46;10.80;83.70
49253;DHT22;35103;47.952;-1.502;2022-11-23T02:39:36;10.80;83.60
49253;DHT22;35103;47.952;-1.502;2022-11-23T02:42:02;10.80;83.40
49253;DHT22;35103;47.952;-1.502;2022-11-23T02:47:21;10.80;83.60
49253;DHT22;35103;47.952;-1.502;2022-11-23T02:49:48;10.80;83.80
49253;DHT22;35103;47.952;-1.502;2022-11-23T02:52:14;10.80;83.50
49253;DHT22;35103;47.952;-1.502;2022-11-23T02:54:40;10.80;83.70
49253;DHT22;35103;47.952;-1.502;2022-11-23T02:57:06;10.80;83.40
49253;DHT22;35103;47.952;-1.502;2022-11-23T02:59:32;10.80;83.70
49253;DHT22;35103;47.952;-1.502;2022-11-23T03:02:01;10.80;84.00
49253;DHT22;35103;47.952;-1.502;2022-11-23T03:04:27;10.80;83.90
49253;DHT22;35103;47.952;-1.502;2022-11-23T03:06:53;10.80;84.10
49253;DHT22;35103;47.952;-1.502;2022-11-23T03:09:18;10.80;84.00
49253;DHT22;35103;47.952;-1.502;2022-11-23T03:11:44;10.90;83.90
49253;DHT22;35103;47.952;-1.502;2022-11-23T03:14:10;10.90;83.90
49253;DHT22;35103;47.952;-1.502;2022-11-23T03:16:35;10.90;84.20
49253;DHT22;35103;47.952;-1.502;2022-11-23T03:19:01;10.90;83.90
49253;DHT22;35103;47.952;-1.502;2022-11-23T03:21:26;10.90;83.80
49253;DHT22;35103;47.952;-1.502;2022-11-23T03:23:53;10.90;83.90
49253;DHT22;35103;47.952;-1.502;2022-11-23T03:26:18;10.90;84.40
49253;DHT22;35103;47.952;-1.502;2022-11-23T03:28:44;10.90;84.20
49253;DHT22;35103;47.952;-1.502;2022-11-23T03:31:10;10.90;84.40
49253;DHT22;35103;47.952;-1.502;2022-11-23T03:33:35;10.90;84.40
49253;DHT22;35103;47.952;-1.502;2022-11-23T03:36:01;10.90;84.50
49253;DHT22;35103;47.952;-1.502;2022-11-23T03:38:27;10.90;84.60
49253;DHT22;35103;47.952;-1.502;2022-11-23T03:40:53;10.90;84.30
49253;DHT22;35103;47.952;-1.502;2022-11-23T03:43:18;10.90;84.90
49253;DHT22;35103;47.952;-1.502;2022-11-23T03:45:44;11.00;84.40
49253;DHT22;35103;47.952;-1.502;2022-11-23T03:48:10;10.90;84.80
49253;DHT22;35103;47.952;-1.502;2022-11-23T03:50:36;11.00;84.40
49253;DHT22;35103;47.952;-1.502;2022-11-23T03:53:01;10.90;84.40
49253;DHT22;35103;47.952;-1.502;2022-11-23T03:55:27;11.00;84.20
49253;DHT22;35103;47.952;-1.502;2022-11-23T03:57:53;11.00;84.10
49253;DHT22;35103;47.952;-1.502;2022-11-23T04:00:19;11.00;84.60
49253;DHT22;35103;47.952;-1.502;2022-11-23T04:02:44;11.00;84.60
49253;DHT22;35103;47.952;-1.502;2022-11-23T04:05:10;11.00;84.70
49253;DHT22;35103;47.952;-1.502;2022-11-23T04:07:36;11.00;84.80
49253;DHT22;35103;47.952;-1.502;2022-11-23T04:10:02;11.00;84.50
49253;DHT22;35103;47.952;-1.502;2022-11-23T04:12:27;11.00;84.60
49253;DHT22;35103;47.952;-1.502;2022-11-23T04:14:53;11.00;85.20
49253;DHT22;35103;47.952;-1.502;2022-11-23T04:17:19;11.00;85.00
49253;DHT22;35103;47.952;-1.502;2022-11-23T04:19:44;11.00;84.90
49253;DHT22;35103;47.952;-1.502;2022-11-23T04:22:10;11.00;85.10
49253;DHT22;35103;47.952;-1.502;2022-11-23T04:24:35;11.00;85.10
49253;DHT22;35103;47.952;-1.502;2022-11-23T04:27:01;11.10;85.20
49253;DHT22;35103;47.952;-1.502;2022-11-23T04:29:26;11.00;85.30
49253;DHT22;35103;47.952;-1.502;2022-11-23T04:31:52;11.00;85.50
49253;DHT22;35103;47.952;-1.502;2022-11-23T04:34:18;11.10;85.40
49253;DHT22;35103;47.952;-1.502;2022-11-23T04:36:43;11.00;85.30
49253;DHT22;35103;47.952;-1.502;2022-11-23T04:39:12;11.00;85.30
49253;DHT22;35103;47.952;-1.502;2022-11-23T04:41:38;11.10;85.30
49253;DHT22;35103;47.952;-1.502;2022-11-23T04:44:04;11.00;85.60
49253;DHT22;35103;47.952;-1.502;2022-11-23T04:46:30;11.00;85.90
49253;DHT22;35103;47.952;-1.502;2022-11-23T04:48:55;11.10;85.80
49253;DHT22;35103;47.952;-1.502;2022-11-23T04:51:21;11.10;85.80
49253;DHT22;35103;47.952;-1.502;2022-11-23T04:53:46;11.10;85.60
49253;DHT22;35103;47.952;-1.502;2022-11-23T04:56:13;11.10;85.50
49253;DHT22;35103;47.952;-1.502;2022-11-23T04:58:38;11.10;85.60
49253;DHT22;35103;47.952;-1.502;2022-11-23T05:01:05;11.20;85.60
49253;DHT22;35103;47.952;-1.502;2022-11-23T05:03:30;11.10;85.70
49253;DHT22;35103;47.952;-1.502;2022-11-23T05:06:00;11.20;85.70
49253;DHT22;35103;47.952;-1.502;2022-11-23T05:08:26;11.20;85.80
49253;DHT22;35103;47.952;-1.502;2022-11-23T05:10:51;11.20;86.10
49253;DHT22;35103;47.952;-1.502;2022-11-23T05:13:17;11.20;86.30
49253;DHT22;35103;47.952;-1.502;2022-11-23T05:15:42;11.20;86.20
49253;DHT22;35103;47.952;-1.502;2022-11-23T05:18:09;11.20;86.00
49253;DHT22;35103;47.952;-1.502;2022-11-23T05:20:35;11.30;86.00
49253;DHT22;35103;47.952;-1.502;2022-11-23T05:23:00;11.20;86.00
49253;DHT22;35103;47.952;-1.502;2022-11-23T05:25:26;11.30;86.30
49253;DHT22;35103;47.952;-1.502;2022-11-23T05:27:51;11.30;86.20
49253;DHT22;35103;47.952;-1.502;2022-11-23T05:30:18;11.30;85.90
49253;DHT22;35103;47.952;-1.502;2022-11-23T05:32:43;11.30;85.80
49253;DHT22;35103;47.952;-1.502;2022-11-23T05:35:09;11.30;85.70
49253;DHT22;35103;47.952;-1.502;2022-11-23T05:37:35;11.30;85.80
49253;DHT22;35103;47.952;-1.502;2022-11-23T05:40:00;11.40;86.30
49253;DHT22;35103;47.952;-1.502;2022-11-23T05:42:26;11.40;86.10
49253;DHT22;35103;47.952;-1.502;2022-11-23T05:44:52;11.40;86.00
49253;DHT22;35103;47.952;-1.502;2022-11-23T05:47:17;11.40;86.20
49253;DHT22;35103;47.952;-1.502;2022-11-23T05:49:43;11.40;86.30
49253;DHT22;35103;47.952;-1.502;2022-11-23T05:52:09;11.50;86.30
49253;DHT22;35103;47.952;-1.502;2022-11-23T05:54:34;11.40;86.40
49253;DHT22;35103;47.952;-1.502;2022-11-23T05:57:00;11.50;86.70
49253;DHT22;35103;47.952;-1.502;2022-11-23T05:59:25;11.50;86.50
49253;DHT22;35103;47.952;-1.502;2022-11-23T06:01:51;11.50;86.60
49253;DHT22;35103;47.952;-1.502;2022-11-23T06:04:17;11.50;86.50
49253;DHT22;35103;47.952;-1.502;2022-11-23T06:06:42;11.60;86.60
49253;DHT22;35103;47.952;-1.502;2022-11-23T06:09:08;11.60;86.70
49253;DHT22;35103;47.952;-1.502;2022-11-23T06:11:33;11.60;86.90
49253;DHT22;35103;47.952;-1.502;2022-11-23T06:13:59;11.70;86.60
49253;DHT22;35103;47.952;-1.502;2022-11-23T06:16:25;11.80;86.70
49253;DHT22;35103;47.952;-1.502;2022-11-23T06:18:50;11.80;86.80
49253;DHT22;35103;47.952;-1.502;2022-11-23T06:21:16;11.80;87.00
49253;DHT22;35103;47.952;-1.502;2022-11-23T06:23:41;11.80;87.00
49253;DHT22;35103;47.952;-1.502;2022-11-23T06:26:07;11.80;86.90
49253;DHT22;35103;47.952;-1.502;2022-11-23T06:28:32;11.90;87.40
49253;DHT22;35103;47.952;-1.502;2022-11-23T06:31:03;11.90;87.70
49253;DHT22;35103;47.952;-1.502;2022-11-23T06:33:29;12.00;87.70
49253;DHT22;35103;47.952;-1.502;2022-11-23T06:35:59;12.00;87.60
49253;DHT22;35103;47.952;-1.502;2022-11-23T06:38:25;12.00;87.60
49253;DHT22;35103;47.952;-1.502;2022-11-23T06:40:51;12.00;87.50
49253;DHT22;35103;47.952;-1.502;2022-11-23T06:43:16;12.10;87.60
49253;DHT22;35103;47.952;-1.502;2022-11-23T06:45:42;12.10;87.40
49253;DHT22;35103;47.952;-1.502;2022-11-23T06:48:08;12.10;87.50
49253;DHT22;35103;47.952;-1.502;2022-11-23T06:50:34;12.10;87.70
49253;DHT22;35103;47.952;-1.502;2022-11-23T06:52:59;12.10;87.40
49253;DHT22;35103;47.952;-1.502;2022-11-23T06:55:25;12.10;87.40
49253;DHT22;35103;47.952;-1.502;2022-11-23T06:57:51;12.20;87.40
49253;DHT22;35103;47.952;-1.502;2022-11-23T07:00:17;12.20;87.50
49253;DHT22;35103;47.952;-1.502;2022-11-23T07:02:49;12.20;87.50
49253;DHT22;35103;47.952;-1.502;2022-11-23T07:05:15;12.20;87.70
49253;DHT22;35103;47.952;-1.502;2022-11-23T07:07:41;12.30;87.80
49253;DHT22;35103;47.952;-1.502;2022-11-23T07:10:07;12.30;87.80
49253;DHT22;35103;47.952;-1.502;2022-11-23T07:12:32;12.30;87.90
49253;DHT22;35103;47.952;-1.502;2022-11-23T07:14:58;12.30;88.00
49253;DHT22;35103;47.952;-1.502;2022-11-23T07:17:23;12.30;88.00
49253;DHT22;35103;47.952;-1.502;2022-11-23T07:19:49;12.30;87.80
49253;DHT22;35103;47.952;-1.502;2022-11-23T07:22:15;12.30;87.90
49253;DHT22;35103;47.952;-1.502;2022-11-23T07:24:40;12.20;87.90
49253;DHT22;35103;47.952;-1.502;2022-11-23T07:27:06;12.20;88.10
49253;DHT22;35103;47.952;-1.502;2022-11-23T07:29:31;12.20;88.10
49253;DHT22;35103;47.952;-1.502;2022-11-23T07:31:57;12.20;88.00
49253;DHT22;35103;47.952;-1.502;2022-11-23T07:34:22;12.20;88.00
49253;DHT22;35103;47.952;-1.502;2022-11-23T07:36:48;12.10;88.00
49253;DHT22;35103;47.952;-1.502;2022-11-23T07:39:13;12.10;87.80
49253;DHT22;35103;47.952;-1.502;2022-11-23T07:41:39;12.00;87.90
49253;DHT22;35103;47.952;-1.502;2022-11-23T07:44:05;12.00;87.90
49253;DHT22;35103;47.952;-1.502;2022-11-23T07:46:31;12.00;88.10
49253;DHT22;35103;47.952;-1.502;2022-11-23T07:48:57;11.90;88.00
49253;DHT22;35103;47.952;-1.502;2022-11-23T07:51:22;11.90;88.00
49253;DHT22;35103;47.952;-1.502;2022-11-23T07:53:48;11.90;88.10
49253;DHT22;35103;47.952;-1.502;2022-11-23T07:56:13;11.80;88.00
49253;DHT22;35103;47.952;-1.502;2022-11-23T07:58:39;11.80;88.00
49253;DHT22;35103;47.952;-1.502;2022-11-23T08:01:04;11.80;87.90
49253;DHT22;35103;47.952;-1.502;2022-11-23T08:03:30;11.80;87.80
49253;DHT22;35103;47.952;-1.502;2022-11-23T08:05:55;11.80;87.90
49253;DHT22;35103;47.952;-1.502;2022-11-23T08:08:22;11.80;87.80
49253;DHT22;35103;47.952;-1.502;2022-11-23T08:10:48;11.70;87.80
49253;DHT22;35103;47.952;-1.502;2022-11-23T08:13:14;11.80;87.80
49253;DHT22;35103;47.952;-1.502;2022-11-23T08:15:39;11.80;87.80
49253;DHT22;35103;47.952;-1.502;2022-11-23T08:18:05;11.80;87.70
49253;DHT22;35103;47.952;-1.502;2022-11-23T08:20:32;11.80;87.70
49253;DHT22;35103;47.952;-1.502;2022-11-23T08:22:57;11.80;87.60
49253;DHT22;35103;47.952;-1.502;2022-11-23T08:25:25;11.80;87.40
49253;DHT22;35103;47.952;-1.502;2022-11-23T08:27:59;11.80;87.40
49253;DHT22;35103;47.952;-1.502;2022-11-23T08:30:25;11.80;87.30
49253;DHT22;35103;47.952;-1.502;2022-11-23T08:32:51;11.80;87.20
49253;DHT22;35103;47.952;-1.502;2022-11-23T08:35:16;11.80;87.00
49253;DHT22;35103;47.952;-1.502;2022-11-23T08:37:42;11.80;86.80
49253;DHT22;35103;47.952;-1.502;2022-11-23T08:40:08;11.80;86.80
49253;DHT22;35103;47.952;-1.502;2022-11-23T08:42:35;11.80;86.70
49253;DHT22;35103;47.952;-1.502;2022-11-23T08:45:00;11.80;86.70
49253;DHT22;35103;47.952;-1.502;2022-11-23T08:47:30;11.70;86.40
49253;DHT22;35103;47.952;-1.502;2022-11-23T08:49:58;11.60;86.40
49253;DHT22;35103;47.952;-1.502;2022-11-23T08:52:25;11.60;86.30
49253;DHT22;35103;47.952;-1.502;2022-11-23T08:54:51;11.60;86.20
49253;DHT22;35103;47.952;-1.502;2022-11-23T08:57:16;11.60;86.20
49253;DHT22;35103;47.952;-1.502;2022-11-23T08:59:42;11.60;86.00
49253;DHT22;35103;47.952;-1.502;2022-11-23T09:02:11;11.60;85.70
49253;DHT22;35103;47.952;-1.502;2022-11-23T09:04:38;11.60;85.50
49253;DHT22;35103;47.952;-1.502;2022-11-23T09:07:04;11.60;85.40
49253;DHT22;35103;47.952;-1.502;2022-11-23T09:09:30;11.60;85.00
49253;DHT22;35103;47.952;-1.502;2022-11-23T09:11:55;11.60;84.90
49253;DHT22;35103;47.952;-1.502;2022-11-23T09:14:21;11.60;84.60
49253;DHT22;35103;47.952;-1.502;2022-11-23T09:16:46;11.60;84.30
49253;DHT22;35103;47.952;-1.502;2022-11-23T09:19:13;11.60;84.10
49253;DHT22;35103;47.952;-1.502;2022-11-23T09:21:39;11.60;84.20
49253;DHT22;35103;47.952;-1.502;2022-11-23T09:24:05;11.60;84.10
49253;DHT22;35103;47.952;-1.502;2022-11-23T09:26:31;11.70;83.60
49253;DHT22;35103;47.952;-1.502;2022-11-23T09:28:56;11.70;83.70
49253;DHT22;35103;47.952;-1.502;2022-11-23T09:31:23;11.70;83.80
49253;DHT22;35103;47.952;-1.502;2022-11-23T09:33:52;11.70;83.30
49253;DHT22;35103;47.952;-1.502;2022-11-23T09:36:17;11.80;83.50
49253;DHT22;35103;47.952;-1.502;2022-11-23T09:38:43;11.80;83.60
49253;DHT22;35103;47.952;-1.502;2022-11-23T09:44:01;11.90;83.80
49253;DHT22;35103;47.952;-1.502;2022-11-23T09:49:21;11.90;82.70
49253;DHT22;35103;47.952;-1.502;2022-11-23T09:51:48;12.00;83.20
49253;DHT22;35103;47.952;-1.502;2022-11-23T09:54:21;12.00;83.50
49253;DHT22;35103;47.952;-1.502;2022-11-23T09:56:50;12.10;83.40
49253;DHT22;35103;47.952;-1.502;2022-11-23T10:01:52;12.20;83.00
49253;DHT22;35103;47.952;-1.502;2022-11-23T10:04:19;12.20;83.20
49253;DHT22;35103;47.952;-1.502;2022-11-23T10:06:53;12.30;82.90
49253;DHT22;35103;47.952;-1.502;2022-11-23T10:09:38;12.20;81.80
49253;DHT22;35103;47.952;-1.502;2022-11-23T10:12:32;12.20;81.80
49253;DHT22;35103;47.952;-1.502;2022-11-23T10:18:06;12.20;80.60
49253;DHT22;35103;47.952;-1.502;2022-11-23T10:23:38;12.20;80.20
49253;DHT22;35103;47.952;-1.502;2022-11-23T10:26:22;12.30;79.50
49253;DHT22;35103;47.952;-1.502;2022-11-23T10:28:49;12.30;79.50
49253;DHT22;35103;47.952;-1.502;2022-11-23T10:31:22;12.30;79.10
49253;DHT22;35103;47.952;-1.502;2022-11-23T10:34:02;12.30;79.70
49253;DHT22;35103;47.952;-1.502;2022-11-23T10:36:28;12.30;78.80
49253;DHT22;35103;47.952;-1.502;2022-11-23T10:38:57;12.30;79.00
49253;DHT22;35103;47.952;-1.502;2022-11-23T10:41:24;12.30;76.50
49253;DHT22;35103;47.952;-1.502;2022-11-23T10:44:15;12.30;77.00
49253;DHT22;35103;47.952;-1.502;2022-11-23T10:46:43;12.30;76.50
49253;DHT22;35103;47.952;-1.502;2022-11-23T10:51:57;12.30;75.50
49253;DHT22;35103;47.952;-1.502;2022-11-23T10:54:27;12.30;76.00
49253;DHT22;35103;47.952;-1.502;2022-11-23T10:56:54;12.40;75.70
49253;DHT22;35103;47.952;-1.502;2022-11-23T10:59:36;12.40;73.90
49253;DHT22;35103;47.952;-1.502;2022-11-23T11:02:16;12.40;74.50
49253;DHT22;35103;47.952;-1.502;2022-11-23T11:04:43;12.50;74.80
49253;DHT22;35103;47.952;-1.502;2022-11-23T11:07:23;12.60;73.60
49253;DHT22;35103;47.952;-1.502;2022-11-23T11:09:54;12.60;74.00
49253;DHT22;35103;47.952;-1.502;2022-11-23T11:12:21;12.60;73.80
49253;DHT22;35103;47.952;-1.502;2022-11-23T11:15:14;12.70;73.90
49253;DHT22;35103;47.952;-1.502;2022-11-23T11:17:39;12.80;73.70
49253;DHT22;35103;47.952;-1.502;2022-11-23T11:22:55;12.90;73.50
49253;DHT22;35103;47.952;-1.502;2022-11-23T11:25:41;13.00;72.90
49253;DHT22;35103;47.952;-1.502;2022-11-23T11:28:27;13.10;72.20
49253;DHT22;35103;47.952;-1.502;2022-11-23T11:34:03;13.20;71.50
49253;DHT22;35103;47.952;-1.502;2022-11-23T11:36:40;13.10;71.60
49253;DHT22;35103;47.952;-1.502;2022-11-23T11:39:14;13.10;71.70
49253;DHT22;35103;47.952;-1.502;2022-11-23T11:41:43;13.10;71.50
49253;DHT22;35103;47.952;-1.502;2022-11-23T11:44:37;13.10;72.10
49253;DHT22;35103;47.952;-1.502;2022-11-23T11:47:20;13.10;70.00
49253;DHT22;35103;47.952;-1.502;2022-11-23T11:49:47;13.10;70.90
49253;DHT22;35103;47.952;-1.502;2022-11-23T11:52:19;13.10;70.70
49253;DHT22;35103;47.952;-1.502;2022-11-23T11:55:10;13.10;71.00
49253;DHT22;35103;47.952;-1.502;2022-11-23T11:57:43;13.10;70.60
49253;DHT22;35103;47.952;-1.502;2022-11-23T12:00:14;13.20;71.40
49253;DHT22;35103;47.952;-1.502;2022-11-23T12:02:48;13.20;70.90
49253;DHT22;35103;47.952;-1.502;2022-11-23T12:08:07;13.30;71.50
49253;DHT22;35103;47.952;-1.502;2022-11-23T12:10:54;13.30;70.50
49253;DHT22;35103;47.952;-1.502;2022-11-23T12:13:23;13.40;70.50
49253;DHT22;35103;47.952;-1.502;2022-11-23T12:41:20;13.80;68.20
49253;DHT22;35103;47.952;-1.502;2022-11-23T12:54:46;13.70;65.00
49253;DHT22;35103;47.952;-1.502;2022-11-23T12:57:28;13.70;64.80
49253;DHT22;35103;47.952;-1.502;2022-11-23T13:00:01;13.70;64.90
49253;DHT22;35103;47.952;-1.502;2022-11-23T13:16:51;14.00;66.60
49253;DHT22;35103;47.952;-1.502;2022-11-23T13:22:04;14.00;66.90
49253;DHT22;35103;47.952;-1.502;2022-11-23T13:40:37;14.10;67.20
49253;DHT22;35103;47.952;-1.502;2022-11-23T13:43:14;14.20;66.80
49253;DHT22;35103;47.952;-1.502;2022-11-23T13:45:40;14.10;66.80
49253;DHT22;35103;47.952;-1.502;2022-11-23T13:48:14;14.00;67.50
49253;DHT22;35103;47.952;-1.502;2022-11-23T13:55:56;13.80;68.70
49253;DHT22;35103;47.952;-1.502;2022-11-23T14:06:20;14.00;69.00
49253;DHT22;35103;47.952;-1.502;2022-11-23T14:08:52;13.90;69.20
49253;DHT22;35103;47.952;-1.502;2022-11-23T14:11:24;14.00;69.10
49253;DHT22;35103;47.952;-1.502;2022-11-23T14:13:58;14.10;68.30
49253;DHT22;35103;47.952;-1.502;2022-11-23T14:16:58;14.10;68.30
49253;DHT22;35103;47.952;-1.502;2022-11-23T14:20:00;14.30;67.20
49253;DHT22;35103;47.952;-1.502;2022-11-23T14:25:39;14.40;64.10
49253;DHT22;35103;47.952;-1.502;2022-11-23T14:28:37;14.80;62.80
49253;DHT22;35103;47.952;-1.502;2022-11-23T14:33:51;15.40;60.60
49253;DHT22;35103;47.952;-1.502;2022-11-23T14:42:16;15.80;59.10
49253;DHT22;35103;47.952;-1.502;2022-11-23T14:44:43;16.00;59.20
49253;DHT22;35103;47.952;-1.502;2022-11-23T14:47:10;15.90;56.80
49253;DHT22;35103;47.952;-1.502;2022-11-23T14:49:40;15.70;58.30
49253;DHT22;35103;47.952;-1.502;2022-11-23T14:52:21;15.80;58.80
49253;DHT22;35103;47.952;-1.502;2022-11-23T14:54:49;15.90;57.80
49253;DHT22;35103;47.952;-1.502;2022-11-23T14:57:16;15.70;56.30
49253;DHT22;35103;47.952;-1.502;2022-11-23T14:59:47;15.20;58.30
49253;DHT22;35103;47.952;-1.502;2022-11-23T15:02:21;15.10;60.00
49253;DHT22;35103;47.952;-1.502;2022-11-23T15:07:43;15.40;60.00
49253;DHT22;35103;47.952;-1.502;2022-11-23T15:10:51;15.70;59.00
49253;DHT22;35103;47.952;-1.502;2022-11-23T15:13:17;15.80;59.20
49253;DHT22;35103;47.952;-1.502;2022-11-23T15:15:44;15.70;57.60
49253;DHT22;35103;47.952;-1.502;2022-11-23T15:18:10;15.30;59.10
49253;DHT22;35103;47.952;-1.502;2022-11-23T15:20:43;14.90;59.30
49253;DHT22;35103;47.952;-1.502;2022-11-23T15:23:20;14.60;60.50
49253;DHT22;35103;47.952;-1.502;2022-11-23T15:25:53;14.50;61.20
49253;DHT22;35103;47.952;-1.502;2022-11-23T15:28:24;14.40;61.60
49253;DHT22;35103;47.952;-1.502;2022-11-23T15:30:51;14.30;61.80
49253;DHT22;35103;47.952;-1.502;2022-11-23T15:33:19;14.30;62.40
49253;DHT22;35103;47.952;-1.502;2022-11-23T15:35:45;14.20;62.70
49253;DHT22;35103;47.952;-1.502;2022-11-23T15:38:12;14.10;63.10
49253;DHT22;35103;47.952;-1.502;2022-11-23T15:40:42;14.00;63.50
49253;DHT22;35103;47.952;-1.502;2022-11-23T15:43:12;14.00;63.90
49253;DHT22;35103;47.952;-1.502;2022-11-23T15:48:22;13.80;64.50
49253;DHT22;35103;47.952;-1.502;2022-11-23T15:50:54;13.80;64.90
49253;DHT22;35103;47.952;-1.502;2022-11-23T15:53:24;13.70;65.10
49253;DHT22;35103;47.952;-1.502;2022-11-23T15:55:52;13.60;65.30
49253;DHT22;35103;47.952;-1.502;2022-11-23T15:58:19;13.50;65.80
49253;DHT22;35103;47.952;-1.502;2022-11-23T16:00:53;13.50;66.00
49253;DHT22;35103;47.952;-1.502;2022-11-23T16:03:27;13.40;65.90
49253;DHT22;35103;47.952;-1.502;2022-11-23T16:08:38;13.30;66.40
49253;DHT22;35103;47.952;-1.502;2022-11-23T16:11:04;13.30;66.60
49253;DHT22;35103;47.952;-1.502;2022-11-23T16:13:37;13.30;66.80
49253;DHT22;35103;47.952;-1.502;2022-11-23T16:16:14;13.30;67.00
49253;DHT22;35103;47.952;-1.502;2022-11-23T16:18:47;13.20;67.40
49253;DHT22;35103;47.952;-1.502;2022-11-23T16:21:18;13.20;67.60
49253;DHT22;35103;47.952;-1.502;2022-11-23T16:23:48;13.20;68.00
49253;DHT22;35103;47.952;-1.502;2022-11-23T16:26:15;13.20;68.30
49253;DHT22;35103;47.952;-1.502;2022-11-23T16:28:53;13.20;69.20
49253;DHT22;35103;47.952;-1.502;2022-11-23T16:34:08;13.10;69.40
49253;DHT22;35103;47.952;-1.502;2022-11-23T16:36:34;12.90;69.60
49253;DHT22;35103;47.952;-1.502;2022-11-23T16:39:00;12.80;70.00
49253;DHT22;35103;47.952;-1.502;2022-11-23T16:41:25;12.80;69.70
49253;DHT22;35103;47.952;-1.502;2022-11-23T16:43:51;12.70;69.60
49253;DHT22;35103;47.952;-1.502;2022-11-23T16:46:17;12.60;70.60
49253;DHT22;35103;47.952;-1.502;2022-11-23T16:48:43;12.50;71.00
49253;DHT22;35103;47.952;-1.502;2022-11-23T16:51:10;12.50;71.00
49253;DHT22;35103;47.952;-1.502;2022-11-23T16:53:36;12.40;71.50
49253;DHT22;35103;47.952;-1.502;2022-11-23T16:56:02;12.30;71.40
49253;DHT22;35103;47.952;-1.502;2022-11-23T16:58:33;12.30;71.30
49253;DHT22;35103;47.952;-1.502;2022-11-23T17:01:02;12.30;71.40
49253;DHT22;35103;47.952;-1.502;2022-11-23T17:03:28;12.20;71.40
49253;DHT22;35103;47.952;-1.502;2022-11-23T17:05:54;12.10;72.10
49253;DHT22;35103;47.952;-1.502;2022-11-23T17:08:20;12.10;73.10
49253;DHT22;35103;47.952;-1.502;2022-11-23T17:10:46;12.00;73.00
49253;DHT22;35103;47.952;-1.502;2022-11-23T17:13:26;12.10;73.00
49253;DHT22;35103;47.952;-1.502;2022-11-23T17:15:53;12.10;73.40
49253;DHT22;35103;47.952;-1.502;2022-11-23T17:18:19;12.10;73.50
49253;DHT22;35103;47.952;-1.502;2022-11-23T17:20:44;12.20;73.60
49253;DHT22;35103;47.952;-1.502;2022-11-23T17:23:10;12.20;73.50
49253;DHT22;35103;47.952;-1.502;2022-11-23T17:25:37;12.10;73.60
49253;DHT22;35103;47.952;-1.502;2022-11-23T17:28:04;12.10;73.60
49253;DHT22;35103;47.952;-1.502;2022-11-23T17:30:30;12.10;73.50
49253;DHT22;35103;47.952;-1.502;2022-11-23T17:32:55;12.10;73.50
49253;DHT22;35103;47.952;-1.502;2022-11-23T17:35:21;12.10;73.70
49253;DHT22;35103;47.952;-1.502;2022-11-23T17:37:47;12.00;73.90